sensor_id;sensor_type;location;lat;lon;timestamp;temperature;humidity
65291;SHT30;51893;59.754;10.110;2023-12-04T00:01:31;-11.40;68.82
65291;SHT30;51893;59.754;10.110;2023-12-04T00:04:00;-11.28;68.89
65291;SHT30;51893;59.754;10.110;2023-12-04T00:06:29;-11.32;68.52
65291;SHT30;51893;59.754;10.110;2023-12-04T00:08:57;-11.33;68.55
65291;SHT30;51893;59.754;10.110;2023-12-04T00:11:27;-11.40;68.51
65291;SHT30;51893;59.754;10.110;2023-12-04T00:13:59;-11.37;68.68
65291;SHT30;51893;59.754;10.110;2023-12-04T00:16:28;-11.43;68.85
65291;SHT30;51893;59.754;10.110;2023-12-04T00:18:56;-11.40;69.20
65291;SHT30;51893;59.754;10.110;2023-12-04T00:21:25;-11.45;69.69
65291;SHT30;51893;59.754;10.110;2023-12-04T00:23:53;-11.54;70.02
65291;SHT30;51893;59.754;10.110;2023-12-04T00:26:22;-11.54;70.43
65291;SHT30;51893;59.754;10.110;2023-12-04T00:28:49;-11.47;70.50
65291;SHT30;51893;59.754;10.110;2023-12-04T00:31:17;-11.49;70.50
65291;SHT30;51893;59.754;10.110;2023-12-04T00:33:47;-11.51;70.43
65291;SHT30;51893;59.754;10.110;2023-12-04T00:36:16;-11.49;70.30
65291;SHT30;51893;59.754;10.110;2023-12-04T00:38:44;-11.40;70.07
65291;SHT30;51893;59.754;10.110;2023-12-04T00:41:12;-11.45;69.69
65291;SHT30;51893;59.754;10.110;2023-12-04T00:43:40;-11.37;69.46
65291;SHT30;51893;59.754;10.110;2023-12-04T00:46:08;-11.36;69.01
65291;SHT30;51893;59.754;10.110;2023-12-04T00:48:36;-11.39;69.11
65291;SHT30;51893;59.754;10.110;2023-12-04T00:51:05;-11.40;69.05
65291;SHT30;51893;59.754;10.110;2023-12-04T00:53:35;-11.39;68.93
65291;SHT30;51893;59.754;10.110;2023-12-04T00:56:04;-11.43;68.73
65291;SHT30;51893;59.754;10.110;2023-12-04T00:58:33;-11.45;68.98
65291;SHT30;51893;59.754;10.110;2023-12-04T01:01:01;-11.44;69.80
65291;SHT30;51893;59.754;10.110;2023-12-04T01:03:30;-11.55;70.02
65291;SHT30;51893;59.754;10.110;2023-12-04T01:06:00;-11.55;70.31
65291;SHT30;51893;59.754;10.110;2023-12-04T01:08:29;-11.58;70.47
65291;SHT30;51893;59.754;10.110;2023-12-04T01:10:57;-11.66;70.76
65291;SHT30;51893;59.754;10.110;2023-12-04T01:13:25;-11.62;71.09
65291;SHT30;51893;59.754;10.110;2023-12-04T01:15:54;-11.58;70.89
65291;SHT30;51893;59.754;10.110;2023-12-04T01:18:22;-11.49;70.53
65291;SHT30;51893;59.754;10.110;2023-12-04T01:20:50;-11.43;70.34
65291;SHT30;51893;59.754;10.110;2023-12-04T01:23:19;-11.35;70.01
65291;SHT30;51893;59.754;10.110;2023-12-04T01:25:46;-11.46;70.19
65291;SHT30;51893;59.754;10.110;2023-12-04T01:28:15;-11.49;70.46
65291;SHT30;51893;59.754;10.110;2023-12-04T01:30:43;-11.42;70.49
65291;SHT30;51893;59.754;10.110;2023-12-04T01:33:11;-11.40;69.98
65291;SHT30;51893;59.754;10.110;2023-12-04T01:35:41;-11.31;69.60
65291;SHT30;51893;59.754;10.110;2023-12-04T01:38:09;-11.33;69.27
65291;SHT30;51893;59.754;10.110;2023-12-04T01:40:37;-11.48;69.51
65291;SHT30;51893;59.754;10.110;2023-12-04T01:43:05;-11.57;70.01
65291;SHT30;51893;59.754;10.110;2023-12-04T01:45:33;-11.56;70.04
65291;SHT30;51893;59.754;10.110;2023-12-04T01:48:02;-11.47;70.01
65291;SHT30;51893;59.754;10.110;2023-12-04T01:50:31;-11.27;69.86
65291;SHT30;51893;59.754;10.110;2023-12-04T01:53:02;-11.23;69.02
65291;SHT30;51893;59.754;10.110;2023-12-04T01:55:30;-11.30;69.23
65291;SHT30;51893;59.754;10.110;2023-12-04T01:58:01;-11.37;69.83
65291;SHT30;51893;59.754;10.110;2023-12-04T02:00:31;-11.39;69.79
65291;SHT30;51893;59.754;10.110;2023-12-04T02:03:00;-11.44;69.70
65291;SHT30;51893;59.754;10.110;2023-12-04T02:05:29;-11.47;69.70
65291;SHT30;51893;59.754;10.110;2023-12-04T02:08:00;-11.49;69.87
65291;SHT30;51893;59.754;10.110;2023-12-04T02:10:28;-11.52;70.26
65291;SHT30;51893;59.754;10.110;2023-12-04T02:12:56;-11.51;70.32
65291;SHT30;51893;59.754;10.110;2023-12-04T02:15:25;-11.51;70.37
65291;SHT30;51893;59.754;10.110;2023-12-04T02:17:56;-11.49;70.68
65291;SHT30;51893;59.754;10.110;2023-12-04T02:20:34;-11.55;70.79
65291;SHT30;51893;59.754;10.110;2023-12-04T02:23:03;-11.62;70.85
65291;SHT30;51893;59.754;10.110;2023-12-04T02:25:32;-11.69;71.10
65291;SHT30;51893;59.754;10.110;2023-12-04T02:28:07;-11.75;71.40
65291;SHT30;51893;59.754;10.110;2023-12-04T02:30:40;-11.84;71.52
65291;SHT30;51893;59.754;10.110;2023-12-04T02:33:11;-11.94;71.74
65291;SHT30;51893;59.754;10.110;2023-12-04T02:35:42;-11.97;71.80
65291;SHT30;51893;59.754;10.110;2023-12-04T02:38:13;-12.05;71.80
65291;SHT30;51893;59.754;10.110;2023-12-04T02:40:41;-12.10;71.89
65291;SHT30;51893;59.754;10.110;2023-12-04T02:43:09;-12.14;72.12
65291;SHT30;51893;59.754;10.110;2023-12-04T02:45:37;-12.20;72.42
65291;SHT30;51893;59.754;10.110;2023-12-04T02:48:05;-12.25;72.91
65291;SHT30;51893;59.754;10.110;2023-12-04T02:50:34;-12.21;73.20
65291;SHT30;51893;59.754;10.110;2023-12-04T02:53:02;-12.06;73.21
65291;SHT30;51893;59.754;10.110;2023-12-04T02:55:31;-11.96;72.89
65291;SHT30;51893;59.754;10.110;2023-12-04T02:57:59;-11.92;72.63
65291;SHT30;51893;59.754;10.110;2023-12-04T03:00:27;-11.90;72.54
65291;SHT30;51893;59.754;10.110;2023-12-04T03:02:55;-11.76;72.66
65291;SHT30;51893;59.754;10.110;2023-12-04T03:05:23;-11.65;72.40
65291;SHT30;51893;59.754;10.110;2023-12-04T03:07:52;-11.62;72.10
65291;SHT30;51893;59.754;10.110;2023-12-04T03:10:19;-11.54;72.04
65291;SHT30;51893;59.754;10.110;2023-12-04T03:12:48;-11.47;71.81
65291;SHT30;51893;59.754;10.110;2023-12-04T03:15:16;-11.45;71.67
65291;SHT30;51893;59.754;10.110;2023-12-04T03:17:44;-11.46;71.66
65291;SHT30;51893;59.754;10.110;2023-12-04T03:20:13;-11.39;71.87
65291;SHT30;51893;59.754;10.110;2023-12-04T03:22:42;-11.39;71.59
65291;SHT30;51893;59.754;10.110;2023-12-04T03:25:10;-11.48;71.57
65291;SHT30;51893;59.754;10.110;2023-12-04T03:27:38;-11.55;71.50
65291;SHT30;51893;59.754;10.110;2023-12-04T03:30:06;-11.67;71.49
65291;SHT30;51893;59.754;10.110;2023-12-04T03:32:35;-11.91;71.81
65291;SHT30;51893;59.754;10.110;2023-12-04T03:35:03;-12.09;72.26
65291;SHT30;51893;59.754;10.110;2023-12-04T03:37:31;-12.13;72.49
65291;SHT30;51893;59.754;10.110;2023-12-04T03:40:01;-12.18;72.54
65291;SHT30;51893;59.754;10.110;2023-12-04T03:42:30;-12.24;72.86
65291;SHT30;51893;59.754;10.110;2023-12-04T03:44:59;-12.25;73.12
65291;SHT30;51893;59.754;10.110;2023-12-04T03:47:27;-12.35;73.26
65291;SHT30;51893;59.754;10.110;2023-12-04T03:49:55;-12.42;73.63
65291;SHT30;51893;59.754;10.110;2023-12-04T03:52:24;-12.49;73.88
65291;SHT30;51893;59.754;10.110;2023-12-04T03:54:52;-12.52;74.28
65291;SHT30;51893;59.754;10.110;2023-12-04T03:57:20;-12.43;74.45
65291;SHT30;51893;59.754;10.110;2023-12-04T03:59:48;-12.36;74.33
65291;SHT30;51893;59.754;10.110;2023-12-04T04:02:17;-12.28;74.34
65291;SHT30;51893;59.754;10.110;2023-12-04T04:04:45;-12.20;74.16
65291;SHT30;51893;59.754;10.110;2023-12-04T04:07:15;-12.12;74.04
65291;SHT30;51893;59.754;10.110;2023-12-04T04:09:48;-12.17;73.71
65291;SHT30;51893;59.754;10.110;2023-12-04T04:12:16;-12.17;73.57
65291;SHT30;51893;59.754;10.110;2023-12-04T04:14:44;-12.19;73.42
65291;SHT30;51893;59.754;10.110;2023-12-04T04:17:15;-12.21;73.32
65291;SHT30;51893;59.754;10.110;2023-12-04T04:19:43;-12.22;73.42
65291;SHT30;51893;59.754;10.110;2023-12-04T04:22:11;-12.25;73.67
65291;SHT30;51893;59.754;10.110;2023-12-04T04:24:39;-12.30;73.68
65291;SHT30;51893;59.754;10.110;2023-12-04T04:27:08;-12.33;73.73
65291;SHT30;51893;59.754;10.110;2023-12-04T04:29:35;-12.33;73.69
65291;SHT30;51893;59.754;10.110;2023-12-04T04:32:04;-12.30;73.92
65291;SHT30;51893;59.754;10.110;2023-12-04T04:34:33;-12.26;74.03
65291;SHT30;51893;59.754;10.110;2023-12-04T04:37:02;-12.26;74.01
65291;SHT30;51893;59.754;10.110;2023-12-04T04:39:30;-12.24;74.09
65291;SHT30;51893;59.754;10.110;2023-12-04T04:41:58;-12.22;74.00
65291;SHT30;51893;59.754;10.110;2023-12-04T04:44:26;-12.18;73.90
65291;SHT30;51893;59.754;10.110;2023-12-04T04:46:54;-12.13;73.93
65291;SHT30;51893;59.754;10.110;2023-12-04T04:49:22;-12.07;73.82
65291;SHT30;51893;59.754;10.110;2023-12-04T04:51:51;-12.17;73.59
65291;SHT30;51893;59.754;10.110;2023-12-04T04:54:21;-12.29;73.67
65291;SHT30;51893;59.754;10.110;2023-12-04T04:56:49;-12.32;73.76
65291;SHT30;51893;59.754;10.110;2023-12-04T04:59:17;-12.34;73.76
65291;SHT30;51893;59.754;10.110;2023-12-04T05:01:45;-12.33;73.77
65291;SHT30;51893;59.754;10.110;2023-12-04T05:04:13;-12.32;73.92
65291;SHT30;51893;59.754;10.110;2023-12-04T05:06:42;-12.35;73.76
65291;SHT30;51893;59.754;10.110;2023-12-04T05:09:10;-12.39;73.63
65291;SHT30;51893;59.754;10.110;2023-12-04T05:11:40;-12.35;73.63
65291;SHT30;51893;59.754;10.110;2023-12-04T05:14:07;-12.37;73.50
65291;SHT30;51893;59.754;10.110;2023-12-04T05:16:36;-12.38;73.53
65291;SHT30;51893;59.754;10.110;2023-12-04T05:19:04;-12.32;73.71
65291;SHT30;51893;59.754;10.110;2023-12-04T05:21:32;-12.27;73.62
65291;SHT30;51893;59.754;10.110;2023-12-04T05:24:03;-12.17;73.55
65291;SHT30;51893;59.754;10.110;2023-12-04T05:26:31;-12.01;73.39
65291;SHT30;51893;59.754;10.110;2023-12-04T05:28:59;-11.92;73.18
65291;SHT30;51893;59.754;10.110;2023-12-04T05:31:27;-11.93;72.97
65291;SHT30;51893;59.754;10.110;2023-12-04T05:33:57;-11.82;72.92
65291;SHT30;51893;59.754;10.110;2023-12-04T05:36:27;-11.74;72.55
65291;SHT30;51893;59.754;10.110;2023-12-04T05:38:55;-11.64;72.29
65291;SHT30;51893;59.754;10.110;2023-12-04T05:41:27;-11.66;72.16
65291;SHT30;51893;59.754;10.110;2023-12-04T05:43:55;-11.64;72.35
65291;SHT30;51893;59.754;10.110;2023-12-04T05:46:23;-11.63;72.26
65291;SHT30;51893;59.754;10.110;2023-12-04T05:48:51;-11.64;72.15
65291;SHT30;51893;59.754;10.110;2023-12-04T05:51:19;-11.60;72.17
65291;SHT30;51893;59.754;10.110;2023-12-04T05:53:47;-11.59;72.00
65291;SHT30;51893;59.754;10.110;2023-12-04T05:56:15;-11.57;71.92
65291;SHT30;51893;59.754;10.110;2023-12-04T05:58:43;-11.54;71.86
65291;SHT30;51893;59.754;10.110;2023-12-04T06:01:11;-11.51;71.87
65291;SHT30;51893;59.754;10.110;2023-12-04T06:03:40;-11.49;71.74
65291;SHT30;51893;59.754;10.110;2023-12-04T06:06:10;-11.57;71.62
65291;SHT30;51893;59.754;10.110;2023-12-04T06:08:38;-11.73;71.49
65291;SHT30;51893;59.754;10.110;2023-12-04T06:11:06;-11.83;71.46
65291;SHT30;51893;59.754;10.110;2023-12-04T06:13:35;-12.11;71.38
65291;SHT30;51893;59.754;10.110;2023-12-04T06:16:03;-12.33;71.92
65291;SHT30;51893;59.754;10.110;2023-12-04T06:18:32;-12.39;72.15
65291;SHT30;51893;59.754;10.110;2023-12-04T06:21:00;-12.34;72.07
65291;SHT30;51893;59.754;10.110;2023-12-04T06:23:28;-12.42;71.93
65291;SHT30;51893;59.754;10.110;2023-12-04T06:25:57;-12.29;72.18
65291;SHT30;51893;59.754;10.110;2023-12-04T06:28:26;-12.24;71.79
65291;SHT30;51893;59.754;10.110;2023-12-04T06:30:55;-12.26;71.79
65291;SHT30;51893;59.754;10.110;2023-12-04T06:33:24;-12.28;71.92
65291;SHT30;51893;59.754;10.110;2023-12-04T06:35:52;-12.19;72.01
65291;SHT30;51893;59.754;10.110;2023-12-04T06:38:22;-12.23;71.90
65291;SHT30;51893;59.754;10.110;2023-12-04T06:40:53;-12.24;72.22
65291;SHT30;51893;59.754;10.110;2023-12-04T06:43:21;-12.16;72.45
65291;SHT30;51893;59.754;10.110;2023-12-04T06:45:50;-12.13;72.33
65291;SHT30;51893;59.754;10.110;2023-12-04T06:48:19;-12.07;72.41
65291;SHT30;51893;59.754;10.110;2023-12-04T06:50:48;-11.95;72.25
65291;SHT30;51893;59.754;10.110;2023-12-04T06:53:17;-11.86;72.03
65291;SHT30;51893;59.754;10.110;2023-12-04T06:55:45;-11.84;71.82
65291;SHT30;51893;59.754;10.110;2023-12-04T06:58:13;-11.85;71.81
65291;SHT30;51893;59.754;10.110;2023-12-04T07:00:41;-11.80;71.72
65291;SHT30;51893;59.754;10.110;2023-12-04T07:03:09;-11.86;71.60
65291;SHT30;51893;59.754;10.110;2023-12-04T07:05:40;-11.91;71.66
65291;SHT30;51893;59.754;10.110;2023-12-04T07:08:09;-11.97;71.62
65291;SHT30;51893;59.754;10.110;2023-12-04T07:10:38;-12.01;71.63
65291;SHT30;51893;59.754;10.110;2023-12-04T07:13:05;-11.99;71.48
65291;SHT30;51893;59.754;10.110;2023-12-04T07:15:33;-12.10;71.07
65291;SHT30;51893;59.754;10.110;2023-12-04T07:18:04;-12.33;71.08
65291;SHT30;51893;59.754;10.110;2023-12-04T07:20:32;-12.52;71.61
65291;SHT30;51893;59.754;10.110;2023-12-04T07:23:01;-12.64;72.01
65291;SHT30;51893;59.754;10.110;2023-12-04T07:25:29;-12.76;72.03
65291;SHT30;51893;59.754;10.110;2023-12-04T07:27:57;-12.85;72.30
65291;SHT30;51893;59.754;10.110;2023-12-04T07:30:26;-12.84;72.45
65291;SHT30;51893;59.754;10.110;2023-12-04T07:32:54;-12.88;72.65
65291;SHT30;51893;59.754;10.110;2023-12-04T07:35:22;-12.86;73.03
65291;SHT30;51893;59.754;10.110;2023-12-04T07:37:50;-12.73;73.27
65291;SHT30;51893;59.754;10.110;2023-12-04T07:40:18;-12.68;73.22
65291;SHT30;51893;59.754;10.110;2023-12-04T07:42:46;-12.71;73.30
65291;SHT30;51893;59.754;10.110;2023-12-04T07:45:14;-12.72;73.13
65291;SHT30;51893;59.754;10.110;2023-12-04T07:47:43;-12.74;72.86
65291;SHT30;51893;59.754;10.110;2023-12-04T07:50:12;-12.74;72.59
65291;SHT30;51893;59.754;10.110;2023-12-04T07:52:40;-12.75;72.34
65291;SHT30;51893;59.754;10.110;2023-12-04T07:55:08;-12.69;72.17
65291;SHT30;51893;59.754;10.110;2023-12-04T07:57:36;-12.60;72.13
65291;SHT30;51893;59.754;10.110;2023-12-04T08:00:04;-12.54;71.81
65291;SHT30;51893;59.754;10.110;2023-12-04T08:02:35;-12.45;71.77
65291;SHT30;51893;59.754;10.110;2023-12-04T08:05:03;-12.48;71.69
65291;SHT30;51893;59.754;10.110;2023-12-04T08:07:32;-12.35;71.82
65291;SHT30;51893;59.754;10.110;2023-12-04T08:10:00;-12.28;71.61
65291;SHT30;51893;59.754;10.110;2023-12-04T08:12:28;-12.22;71.58
65291;SHT30;51893;59.754;10.110;2023-12-04T08:14:58;-12.13;71.57
65291;SHT30;51893;59.754;10.110;2023-12-04T08:17:28;-12.03;71.42
65291;SHT30;51893;59.754;10.110;2023-12-04T08:19:57;-12.02;71.20
65291;SHT30;51893;59.754;10.110;2023-12-04T08:22:25;-11.98;71.30
65291;SHT30;51893;59.754;10.110;2023-12-04T08:24:53;-11.91;71.37
65291;SHT30;51893;59.754;10.110;2023-12-04T08:27:21;-11.81;71.20
65291;SHT30;51893;59.754;10.110;2023-12-04T08:29:50;-11.84;71.01
65291;SHT30;51893;59.754;10.110;2023-12-04T08:32:18;-11.93;71.01
65291;SHT30;51893;59.754;10.110;2023-12-04T08:34:49;-11.98;71.17
65291;SHT30;51893;59.754;10.110;2023-12-04T08:37:17;-12.06;71.30
65291;SHT30;51893;59.754;10.110;2023-12-04T08:39:46;-12.22;71.31
65291;SHT30;51893;59.754;10.110;2023-12-04T08:42:14;-12.46;71.47
65291;SHT30;51893;59.754;10.110;2023-12-04T08:44:50;-12.59;71.78
65291;SHT30;51893;59.754;10.110;2023-12-04T08:47:19;-12.73;72.17
65291;SHT30;51893;59.754;10.110;2023-12-04T08:49:47;-12.84;72.50
65291;SHT30;51893;59.754;10.110;2023-12-04T08:52:18;-12.88;72.78
65291;SHT30;51893;59.754;10.110;2023-12-04T08:54:46;-12.96;72.98
65291;SHT30;51893;59.754;10.110;2023-12-04T08:57:15;-13.02;73.32
65291;SHT30;51893;59.754;10.110;2023-12-04T08:59:43;-13.08;73.59
65291;SHT30;51893;59.754;10.110;2023-12-04T09:02:11;-13.07;73.74
65291;SHT30;51893;59.754;10.110;2023-12-04T09:04:41;-12.99;74.04
65291;SHT30;51893;59.754;10.110;2023-12-04T09:07:10;-12.94;73.93
65291;SHT30;51893;59.754;10.110;2023-12-04T09:09:59;-12.95;74.03
65291;SHT30;51893;59.754;10.110;2023-12-04T09:12:37;-12.99;74.10
65291;SHT30;51893;59.754;10.110;2023-12-04T09:15:06;-13.03;74.36
65291;SHT30;51893;59.754;10.110;2023-12-04T09:17:36;-13.09;74.58
65291;SHT30;51893;59.754;10.110;2023-12-04T09:20:06;-13.11;74.73
65291;SHT30;51893;59.754;10.110;2023-12-04T09:22:35;-13.13;74.90
65291;SHT30;51893;59.754;10.110;2023-12-04T09:25:19;-13.12;74.90
65291;SHT30;51893;59.754;10.110;2023-12-04T09:27:49;-13.20;74.92
65291;SHT30;51893;59.754;10.110;2023-12-04T09:30:17;-13.28;75.15
65291;SHT30;51893;59.754;10.110;2023-12-04T09:32:46;-13.31;75.39
65291;SHT30;51893;59.754;10.110;2023-12-04T09:35:14;-13.26;75.42
65291;SHT30;51893;59.754;10.110;2023-12-04T09:37:43;-13.24;75.37
65291;SHT30;51893;59.754;10.110;2023-12-04T09:40:11;-13.22;75.35
65291;SHT30;51893;59.754;10.110;2023-12-04T09:42:40;-13.20;75.30
65291;SHT30;51893;59.754;10.110;2023-12-04T09:45:09;-13.18;75.30
65291;SHT30;51893;59.754;10.110;2023-12-04T09:47:38;-13.17;75.34
65291;SHT30;51893;59.754;10.110;2023-12-04T09:50:07;-13.14;75.47
65291;SHT30;51893;59.754;10.110;2023-12-04T09:52:37;-13.10;75.50
65291;SHT30;51893;59.754;10.110;2023-12-04T09:55:05;-13.03;75.50
65291;SHT30;51893;59.754;10.110;2023-12-04T09:57:34;-12.86;75.41
65291;SHT30;51893;59.754;10.110;2023-12-04T10:00:03;-12.71;75.29
65291;SHT30;51893;59.754;10.110;2023-12-04T10:02:33;-12.56;75.09
65291;SHT30;51893;59.754;10.110;2023-12-04T10:05:04;-12.49;74.84
65291;SHT30;51893;59.754;10.110;2023-12-04T10:07:34;-12.40;74.71
65291;SHT30;51893;59.754;10.110;2023-12-04T10:10:04;-12.32;74.65
65291;SHT30;51893;59.754;10.110;2023-12-04T10:12:33;-12.21;74.60
65291;SHT30;51893;59.754;10.110;2023-12-04T10:15:05;-12.15;74.41
65291;SHT30;51893;59.754;10.110;2023-12-04T10:17:36;-12.06;74.37
65291;SHT30;51893;59.754;10.110;2023-12-04T10:22:57;-11.99;74.25
65291;SHT30;51893;59.754;10.110;2023-12-04T10:25:29;-12.00;74.18
65291;SHT30;51893;59.754;10.110;2023-12-04T10:28:08;-11.99;74.18
65291;SHT30;51893;59.754;10.110;2023-12-04T10:30:40;-12.04;74.11
65291;SHT30;51893;59.754;10.110;2023-12-04T10:33:09;-12.12;74.15
65291;SHT30;51893;59.754;10.110;2023-12-04T10:35:37;-12.20;74.26
65291;SHT30;51893;59.754;10.110;2023-12-04T10:38:06;-12.23;74.37
65291;SHT30;51893;59.754;10.110;2023-12-04T10:40:35;-12.25;74.54
65291;SHT30;51893;59.754;10.110;2023-12-04T10:45:50;-12.28;74.80
65291;SHT30;51893;59.754;10.110;2023-12-04T10:48:19;-12.28;74.93
65291;SHT30;51893;59.754;10.110;2023-12-04T10:50:48;-12.29;75.03
65291;SHT30;51893;59.754;10.110;2023-12-04T10:53:17;-12.33;75.23
65291;SHT30;51893;59.754;10.110;2023-12-04T10:55:45;-12.36;75.49
65291;SHT30;51893;59.754;10.110;2023-12-04T10:58:19;-12.36;75.72
65291;SHT30;51893;59.754;10.110;2023-12-04T11:00:50;-12.37;75.83
65291;SHT30;51893;59.754;10.110;2023-12-04T11:03:25;-12.37;76.00
65291;SHT30;51893;59.754;10.110;2023-12-04T11:06:02;-12.36;76.18
65291;SHT30;51893;59.754;10.110;2023-12-04T11:08:36;-12.34;76.26
65291;SHT30;51893;59.754;10.110;2023-12-04T11:11:12;-12.31;76.40
65291;SHT30;51893;59.754;10.110;2023-12-04T11:13:46;-12.28;76.39
65291;SHT30;51893;59.754;10.110;2023-12-04T11:16:45;-12.23;76.35
65291;SHT30;51893;59.754;10.110;2023-12-04T11:19:35;-12.17;76.34
65291;SHT30;51893;59.754;10.110;2023-12-04T11:22:23;-12.16;76.25
65291;SHT30;51893;59.754;10.110;2023-12-04T11:24:53;-12.09;76.23
65291;SHT30;51893;59.754;10.110;2023-12-04T11:27:23;-11.98;76.17
65291;SHT30;51893;59.754;10.110;2023-12-04T11:29:52;-11.91;75.91
65291;SHT30;51893;59.754;10.110;2023-12-04T11:32:20;-11.84;75.87
65291;SHT30;51893;59.754;10.110;2023-12-04T11:34:55;-11.81;75.67
65291;SHT30;51893;59.754;10.110;2023-12-04T11:37:26;-11.75;75.62
65291;SHT30;51893;59.754;10.110;2023-12-04T11:39:54;-11.65;75.59
65291;SHT30;51893;59.754;10.110;2023-12-04T11:42:24;-11.58;75.46
65291;SHT30;51893;59.754;10.110;2023-12-04T11:44:59;-11.60;75.31
65291;SHT30;51893;59.754;10.110;2023-12-04T11:47:30;-11.63;75.33
65291;SHT30;51893;59.754;10.110;2023-12-04T11:50:00;-11.63;75.44
65291;SHT30;51893;59.754;10.110;2023-12-04T11:52:32;-11.66;75.49
65291;SHT30;51893;59.754;10.110;2023-12-04T11:55:04;-11.70;75.63
65291;SHT30;51893;59.754;10.110;2023-12-04T11:57:35;-11.73;75.78
65291;SHT30;51893;59.754;10.110;2023-12-04T12:00:09;-11.76;75.88
65291;SHT30;51893;59.754;10.110;2023-12-04T12:02:48;-11.78;76.12
65291;SHT30;51893;59.754;10.110;2023-12-04T12:05:42;-11.77;76.33
65291;SHT30;51893;59.754;10.110;2023-12-04T12:08:11;-11.77;76.41
65291;SHT30;51893;59.754;10.110;2023-12-04T12:10:39;-11.75;76.52
65291;SHT30;51893;59.754;10.110;2023-12-04T12:13:08;-11.73;76.63
65291;SHT30;51893;59.754;10.110;2023-12-04T12:15:38;-11.68;76.66
65291;SHT30;51893;59.754;10.110;2023-12-04T12:18:06;-11.67;76.54
65291;SHT30;51893;59.754;10.110;2023-12-04T12:20:36;-11.63;76.61
65291;SHT30;51893;59.754;10.110;2023-12-04T12:23:05;-11.60;76.46
65291;SHT30;51893;59.754;10.110;2023-12-04T12:25:33;-11.55;76.43
65291;SHT30;51893;59.754;10.110;2023-12-04T12:28:03;-11.51;76.32
65291;SHT30;51893;59.754;10.110;2023-12-04T12:30:35;-11.54;76.25
65291;SHT30;51893;59.754;10.110;2023-12-04T12:33:03;-11.51;76.42
65291;SHT30;51893;59.754;10.110;2023-12-04T12:35:32;-11.43;76.41
65291;SHT30;51893;59.754;10.110;2023-12-04T12:38:00;-11.35;76.32
65291;SHT30;51893;59.754;10.110;2023-12-04T12:40:28;-11.33;76.16
65291;SHT30;51893;59.754;10.110;2023-12-04T12:43:04;-11.38;76.21
65291;SHT30;51893;59.754;10.110;2023-12-04T12:45:38;-11.35;76.26
65291;SHT30;51893;59.754;10.110;2023-12-04T12:48:14;-11.31;76.23
65291;SHT30;51893;59.754;10.110;2023-12-04T12:50:44;-11.30;76.23
65291;SHT30;51893;59.754;10.110;2023-12-04T12:53:14;-11.17;76.29
65291;SHT30;51893;59.754;10.110;2023-12-04T12:55:42;-11.03;76.14
65291;SHT30;51893;59.754;10.110;2023-12-04T12:58:11;-10.96;75.84
65291;SHT30;51893;59.754;10.110;2023-12-04T13:00:43;-10.83;75.64
65291;SHT30;51893;59.754;10.110;2023-12-04T13:03:15;-10.70;75.23
65291;SHT30;51893;59.754;10.110;2023-12-04T13:05:46;-10.66;74.89
65291;SHT30;51893;59.754;10.110;2023-12-04T13:08:15;-10.62;74.70
65291;SHT30;51893;59.754;10.110;2023-12-04T13:10:44;-10.63;74.55
65291;SHT30;51893;59.754;10.110;2023-12-04T13:13:15;-10.67;74.44
65291;SHT30;51893;59.754;10.110;2023-12-04T13:15:44;-10.66;74.47
65291;SHT30;51893;59.754;10.110;2023-12-04T13:18:12;-10.66;74.30
65291;SHT30;51893;59.754;10.110;2023-12-04T13:20:40;-10.62;74.18
65291;SHT30;51893;59.754;10.110;2023-12-04T13:23:08;-10.54;73.99
65291;SHT30;51893;59.754;10.110;2023-12-04T13:25:36;-10.51;73.80
65291;SHT30;51893;59.754;10.110;2023-12-04T13:28:04;-10.48;73.69
65291;SHT30;51893;59.754;10.110;2023-12-04T13:30:34;-10.39;73.44
65291;SHT30;51893;59.754;10.110;2023-12-04T13:33:03;-10.38;73.34
65291;SHT30;51893;59.754;10.110;2023-12-04T13:35:31;-10.37;73.30
65291;SHT30;51893;59.754;10.110;2023-12-04T13:37:59;-10.29;73.33
65291;SHT30;51893;59.754;10.110;2023-12-04T13:40:27;-10.25;73.25
65291;SHT30;51893;59.754;10.110;2023-12-04T13:43:00;-10.27;73.07
65291;SHT30;51893;59.754;10.110;2023-12-04T13:45:47;-10.21;72.95
65291;SHT30;51893;59.754;10.110;2023-12-04T13:48:15;-10.12;72.84
65291;SHT30;51893;59.754;10.110;2023-12-04T13:50:44;-10.04;72.54
65291;SHT30;51893;59.754;10.110;2023-12-04T13:53:12;-10.04;72.28
65291;SHT30;51893;59.754;10.110;2023-12-04T13:55:42;-10.14;72.07
65291;SHT30;51893;59.754;10.110;2023-12-04T13:58:28;-10.30;72.26
65291;SHT30;51893;59.754;10.110;2023-12-04T14:01:08;-10.47;72.40
65291;SHT30;51893;59.754;10.110;2023-12-04T14:03:43;-10.59;72.74
65291;SHT30;51893;59.754;10.110;2023-12-04T14:06:12;-10.62;73.04
65291;SHT30;51893;59.754;10.110;2023-12-04T14:08:42;-10.57;73.03
65291;SHT30;51893;59.754;10.110;2023-12-04T14:11:12;-10.60;72.88
65291;SHT30;51893;59.754;10.110;2023-12-04T14:13:42;-10.47;72.77
65291;SHT30;51893;59.754;10.110;2023-12-04T14:16:11;-10.29;72.51
65291;SHT30;51893;59.754;10.110;2023-12-04T14:18:39;-10.08;72.26
65291;SHT30;51893;59.754;10.110;2023-12-04T14:21:08;-10.03;71.98
65291;SHT30;51893;59.754;10.110;2023-12-04T14:23:36;-10.08;71.85
65291;SHT30;51893;59.754;10.110;2023-12-04T14:26:04;-10.17;71.93
65291;SHT30;51893;59.754;10.110;2023-12-04T14:28:34;-10.15;71.64
65291;SHT30;51893;59.754;10.110;2023-12-04T14:31:09;-10.23;71.83
65291;SHT30;51893;59.754;10.110;2023-12-04T14:33:39;-10.25;71.87
65291;SHT30;51893;59.754;10.110;2023-12-04T14:36:10;-10.16;71.77
65291;SHT30;51893;59.754;10.110;2023-12-04T14:38:41;-10.16;71.66
65291;SHT30;51893;59.754;10.110;2023-12-04T14:41:09;-10.10;71.70
65291;SHT30;51893;59.754;10.110;2023-12-04T14:43:38;-10.12;71.46
65291;SHT30;51893;59.754;10.110;2023-12-04T14:46:07;-10.14;71.42
65291;SHT30;51893;59.754;10.110;2023-12-04T14:48:37;-10.15;71.36
65291;SHT30;51893;59.754;10.110;2023-12-04T14:51:10;-10.26;70.94
65291;SHT30;51893;59.754;10.110;2023-12-04T14:53:39;-10.09;71.23
65291;SHT30;51893;59.754;10.110;2023-12-04T14:56:11;-9.94;70.88
65291;SHT30;51893;59.754;10.110;2023-12-04T14:58:45;-9.96;70.85
65291;SHT30;51893;59.754;10.110;2023-12-04T15:01:13;-10.00;70.65
65291;SHT30;51893;59.754;10.110;2023-12-04T15:04:00;-10.20;70.32
65291;SHT30;51893;59.754;10.110;2023-12-04T15:06:47;-10.19;70.52
65291;SHT30;51893;59.754;10.110;2023-12-04T15:09:34;-10.21;69.99
65291;SHT30;51893;59.754;10.110;2023-12-04T15:12:21;-10.14;70.15
65291;SHT30;51893;59.754;10.110;2023-12-04T15:14:49;-10.17;70.01
65291;SHT30;51893;59.754;10.110;2023-12-04T15:17:24;-10.09;69.97
65291;SHT30;51893;59.754;10.110;2023-12-04T15:20:12;-10.06;69.60
65291;SHT30;51893;59.754;10.110;2023-12-04T15:22:41;-10.09;69.39
65291;SHT30;51893;59.754;10.110;2023-12-04T15:25:08;-10.17;69.47